createdAt,value
2023-04-06T00:00:13.386Z,3.20
2023-04-06T00:04:22.400Z,3.28
2023-04-06T00:08:29.822Z,2.95
2023-04-06T00:12:34.809Z,2.58
2023-04-06T00:16:41.865Z,2.13
2023-04-06T00:20:44.608Z,2.38
2023-04-06T00:24:52.133Z,2.70
2023-04-06T00:29:00.730Z,1.98
2023-04-06T00:33:08.273Z,2.80
2023-04-06T00:37:16.889Z,2.33
2023-04-06T00:41:25.083Z,2.33
2023-04-06T00:45:34.920Z,2.50
2023-04-06T00:49:45.694Z,2.30
2023-04-06T00:53:52.742Z,2.65
2023-04-06T00:58:08.000Z,2.90
2023-04-06T01:06:42.189Z,2.60
2023-04-06T01:11:21.797Z,2.20
2023-04-06T01:15:44.513Z,2.72
2023-04-06T01:19:57.049Z,2.40
2023-04-06T01:29:09.983Z,2.50
2023-04-06T01:33:47.123Z,8.07
2023-04-06T01:37:56.063Z,3.10
2023-04-06T01:42:13.887Z,5.82
2023-04-06T01:46:23.602Z,200.10
2023-04-06T01:50:35.150Z,233.77
2023-04-06T01:54:42.960Z,125.15
2023-04-06T01:58:58.980Z,367.20
2023-04-06T02:03:09.242Z,475.67
2023-04-06T02:07:23.145Z,228.52
2023-04-06T02:11:39.737Z,727.10
2023-04-06T02:15:52.859Z,349.67
2023-04-06T02:20:05.808Z,125.75
2023-04-06T02:24:14.051Z,49.22
2023-04-06T02:28:22.682Z,33.83
2023-04-06T02:32:29.093Z,97.05
2023-04-06T02:36:37.908Z,157.15
2023-04-06T02:41:08.509Z,93.13
2023-04-06T02:45:22.448Z,43.70
2023-04-06T02:49:35.420Z,117.70
2023-04-06T02:53:47.413Z,46.45
2023-04-06T02:58:12.238Z,21.95
2023-04-06T03:02:44.497Z,39.72
2023-04-06T03:07:07.750Z,22.05
2023-04-06T03:11:44.047Z,115.78
2023-04-06T03:15:49.843Z,15.82
2023-04-06T03:20:00.116Z,8.38
2023-04-06T03:24:15.394Z,7.93
2023-04-06T03:29:06.171Z,9.35
2023-04-06T03:33:51.968Z,8.30
2023-04-06T03:47:54.662Z,4.28
2023-04-06T03:52:00.123Z,3.15
2023-04-06T03:56:17.213Z,4.78
2023-04-06T04:00:26.630Z,4.65
2023-04-06T04:04:39.451Z,6.25
2023-04-06T04:08:52.164Z,28.23
2023-04-06T04:12:57.862Z,7.45
2023-04-06T04:17:02.941Z,3.90
2023-04-06T04:21:11.180Z,10.93
2023-04-06T04:25:19.226Z,4.82
2023-04-06T04:29:28.024Z,16.63
2023-04-06T04:33:34.568Z,5.55
2023-04-06T04:37:46.345Z,2.97
2023-04-06T04:41:59.419Z,2.50
2023-04-06T04:46:43.585Z,3.00
2023-04-06T04:50:51.360Z,3.38
2023-04-06T04:55:04.280Z,3.78
2023-04-06T04:59:14.836Z,3.53
2023-04-06T05:03:34.927Z,20.65
2023-04-06T05:07:43.319Z,15.98
2023-04-06T05:11:58.324Z,17.55
2023-04-06T05:16:02.006Z,9.05
2023-04-06T05:20:08.564Z,13.60
2023-04-06T05:24:19.219Z,6.22
2023-04-06T05:32:26.572Z,3.38
2023-04-06T05:36:29.649Z,8.32
2023-04-06T05:40:31.973Z,4.07
2023-04-06T05:44:34.821Z,3.25
2023-04-06T05:48:43.002Z,3.58
2023-04-06T05:56:53.496Z,3.40
2023-04-06T06:01:00.435Z,4.40
2023-04-06T06:05:11.709Z,3.10
2023-04-06T06:09:16.395Z,2.85
2023-04-06T06:13:28.264Z,2.90
2023-04-06T06:17:32.120Z,1.80
2023-04-06T06:21:34.509Z,3.60
2023-04-06T06:25:37.895Z,4.78
2023-04-06T06:29:41.189Z,4.88
2023-04-06T06:33:43.665Z,3.78
2023-04-06T06:37:46.105Z,4.05
2023-04-06T06:41:51.617Z,3.70
2023-04-06T06:45:59.953Z,3.40
2023-04-06T06:50:03.904Z,3.20
2023-04-06T06:54:06.172Z,3.25
2023-04-06T06:58:08.311Z,3.78
2023-04-06T07:02:10.571Z,5.88
2023-04-06T07:06:12.739Z,4.03
2023-04-06T07:10:16.074Z,4.38
2023-04-06T07:14:18.248Z,4.00
2023-04-06T07:18:22.471Z,3.77
2023-04-06T07:22:25.001Z,4.47
2023-04-06T07:26:28.833Z,3.67
2023-04-06T07:30:32.168Z,4.13
2023-04-06T07:38:37.790Z,3.75
2023-04-06T07:42:40.086Z,4.15
2023-04-06T07:46:43.652Z,4.18
2023-04-06T07:50:45.919Z,3.20
2023-04-06T07:54:50.463Z,3.08
2023-04-06T07:58:54.373Z,3.78
2023-04-06T08:02:56.939Z,3.03
2023-04-06T08:06:59.169Z,2.80
2023-04-06T08:11:02.293Z,2.35
2023-04-06T08:15:05.670Z,2.13
2023-04-06T08:19:10.330Z,2.05
2023-04-06T08:23:12.518Z,2.47
2023-04-06T08:27:15.786Z,2.28
2023-04-06T08:31:18.252Z,2.78
2023-04-06T08:35:20.802Z,2.70
2023-04-06T08:39:26.539Z,2.42
2023-04-06T08:43:30.444Z,2.45
2023-04-06T08:47:32.729Z,2.73
2023-04-06T08:51:38.531Z,2.83
2023-04-06T08:55:41.443Z,3.10
2023-04-06T08:59:44.157Z,3.00
2023-04-06T09:03:49.666Z,3.63
2023-04-06T09:07:52.772Z,2.75
2023-04-06T09:11:55.203Z,3.08
2023-04-06T09:16:04.192Z,2.78
2023-04-06T09:20:06.872Z,2.90
2023-04-06T09:24:10.647Z,3.00
2023-04-06T09:28:13.381Z,3.60
2023-04-06T09:32:17.962Z,3.25
2023-04-06T09:36:21.047Z,3.45
2023-04-06T09:40:23.763Z,2.75
2023-04-06T09:44:25.867Z,3.63
2023-04-06T09:48:32.112Z,3.67
2023-04-06T09:52:43.574Z,2.85
2023-04-06T09:57:03.324Z,2.80
2023-04-06T10:01:16.711Z,2.70
2023-04-06T10:05:34.124Z,2.53
2023-04-06T10:09:38.204Z,2.17
2023-04-06T10:13:40.398Z,2.88
2023-04-06T10:17:42.774Z,3.20
2023-04-06T10:21:48.709Z,2.63
2023-04-06T10:25:56.827Z,2.63
2023-04-06T10:30:06.985Z,2.90
2023-04-06T10:38:13.633Z,2.50
2023-04-06T10:46:27.376Z,2.92
2023-04-06T10:50:30.815Z,2.72
2023-04-06T10:54:33.861Z,2.65
2023-04-06T10:58:36.275Z,2.85
2023-04-06T11:02:41.920Z,2.67
2023-04-06T11:06:49.757Z,2.60
2023-04-06T11:10:52.081Z,2.22
2023-04-06T11:14:57.020Z,2.70
2023-04-06T11:19:01.351Z,2.30
2023-04-06T11:23:04.835Z,2.72
2023-04-06T11:27:07.420Z,2.80
2023-04-06T11:31:12.144Z,2.45
2023-04-06T11:35:24.945Z,2.28
2023-04-06T11:39:28.677Z,2.60
2023-04-06T11:43:31.818Z,2.20
2023-04-06T11:47:36.402Z,2.50
2023-04-06T11:51:38.830Z,2.72
2023-04-06T11:55:41.355Z,2.75
2023-04-06T11:59:44.148Z,2.30
2023-04-06T12:03:47.404Z,2.80
2023-04-06T12:07:49.626Z,2.50
2023-04-06T12:11:51.996Z,2.42
2023-04-06T12:15:54.144Z,2.15
2023-04-06T12:20:01.777Z,1.83
2023-04-06T12:24:07.793Z,2.15
2023-04-06T12:28:09.994Z,2.42
2023-04-06T12:32:12.825Z,2.13
2023-04-06T12:36:21.201Z,2.20
2023-04-06T12:40:23.546Z,3.05
2023-04-06T12:44:26.925Z,2.60
2023-04-06T12:48:29.275Z,2.13
2023-04-06T12:52:32.969Z,2.80
2023-04-06T12:56:35.092Z,2.28
2023-04-06T13:00:38.027Z,2.58
2023-04-06T13:04:41.737Z,2.30
2023-04-06T13:08:44.198Z,1.98
2023-04-06T13:12:46.743Z,2.17
2023-04-06T13:16:49.086Z,2.30
2023-04-06T13:20:51.552Z,2.60
2023-04-06T13:24:53.697Z,2.67
2023-04-06T13:28:57.815Z,2.15
2023-04-06T13:37:02.255Z,2.17
2023-04-06T13:41:04.420Z,1.95
2023-04-06T13:45:09.514Z,2.88
2023-04-06T13:49:12.084Z,3.70
2023-04-06T13:53:15.731Z,2.70
2023-04-06T13:57:18.689Z,2.20
2023-04-06T14:01:21.039Z,2.20
2023-04-06T14:05:24.652Z,2.30
2023-04-06T14:09:26.980Z,1.97
2023-04-06T14:13:29.146Z,1.90
2023-04-06T14:17:31.593Z,2.10
2023-04-06T14:21:33.995Z,1.95
2023-04-06T14:25:36.374Z,1.98
2023-04-06T14:29:39.138Z,2.00
2023-04-06T14:33:43.149Z,1.63
2023-04-06T14:37:46.028Z,2.10
2023-04-06T14:41:49.851Z,2.42
2023-04-06T14:45:53.637Z,1.55
2023-04-06T14:49:56.023Z,2.03
2023-04-06T14:53:58.391Z,1.92
2023-04-06T14:58:00.940Z,2.30
2023-04-06T15:02:04.308Z,2.70
2023-04-06T15:06:08.094Z,2.30
2023-04-06T15:10:12.361Z,2.90
2023-04-06T15:14:14.634Z,5.03
2023-04-06T15:18:16.883Z,2.88
2023-04-06T15:22:19.120Z,4.07
2023-04-06T15:26:22.056Z,4.22
2023-04-06T15:30:25.297Z,2.40
2023-04-06T15:34:31.246Z,2.03
2023-04-06T15:38:34.068Z,2.67
2023-04-06T15:42:36.162Z,2.40
2023-04-06T15:46:38.718Z,1.88
2023-04-06T15:50:41.010Z,2.97
2023-04-06T15:54:43.090Z,3.38
2023-04-06T15:58:45.758Z,2.55
2023-04-06T16:02:48.005Z,2.42
2023-04-06T16:06:50.911Z,2.10
2023-04-06T16:10:53.012Z,2.67
2023-04-06T16:14:55.382Z,2.40
2023-04-06T16:18:57.419Z,2.33
2023-04-06T16:22:59.504Z,1.45
2023-04-06T16:27:01.837Z,1.95
2023-04-06T16:31:03.978Z,3.70
2023-04-06T16:35:06.825Z,2.80
2023-04-06T16:39:10.108Z,2.72
2023-04-06T16:43:12.594Z,2.90
2023-04-06T16:47:18.273Z,2.83
2023-04-06T16:51:20.909Z,2.63
2023-04-06T16:55:23.013Z,2.40
2023-04-06T16:59:25.031Z,2.20
2023-04-06T17:03:30.352Z,3.28
2023-04-06T17:07:33.983Z,2.30
2023-04-06T17:11:46.128Z,2.20
2023-04-06T17:15:49.133Z,2.00
2023-04-06T17:19:51.257Z,2.53
2023-04-06T17:23:53.339Z,2.60
2023-04-06T17:27:55.370Z,2.25
2023-04-06T17:31:57.508Z,2.03
2023-04-06T17:35:59.735Z,2.80
2023-04-06T17:40:02.008Z,4.07
2023-04-06T17:44:04.133Z,2.70
2023-04-06T17:48:06.796Z,2.05
2023-04-06T17:52:09.374Z,2.33
2023-04-06T17:56:11.517Z,2.28
2023-04-06T18:00:16.626Z,2.50
2023-04-06T18:04:18.763Z,2.70
2023-04-06T18:08:22.559Z,2.40
2023-04-06T18:12:24.684Z,2.70
2023-04-06T18:16:28.707Z,5.93
2023-04-06T18:20:31.018Z,2.70
2023-04-06T18:24:42.346Z,6.20
2023-04-06T18:28:45.540Z,4.72
2023-04-06T18:32:51.380Z,7.53
2023-04-06T18:36:53.697Z,6.78
2023-04-06T18:40:55.944Z,5.35
2023-04-06T18:44:58.355Z,3.97
2023-04-06T18:49:00.601Z,3.78
2023-04-06T18:53:03.188Z,4.78
2023-04-06T18:57:05.485Z,4.70
2023-04-06T19:01:07.514Z,3.67
2023-04-06T19:05:12.179Z,3.92
2023-04-06T19:09:14.397Z,3.95
2023-04-06T19:13:16.601Z,3.70
2023-04-06T19:17:19.698Z,3.67
2023-04-06T19:21:24.810Z,2.60
2023-04-06T19:25:26.924Z,4.28
2023-04-06T19:29:29.120Z,3.80
2023-04-06T19:33:31.276Z,4.05
2023-04-06T19:37:38.225Z,4.35
2023-04-06T19:41:40.659Z,5.55
2023-04-06T19:45:42.735Z,4.38
2023-04-06T19:49:45.074Z,3.50
2023-04-06T19:53:47.625Z,4.32
2023-04-06T19:57:49.724Z,4.00
2023-04-06T20:01:52.358Z,4.13
2023-04-06T20:05:54.595Z,4.05
2023-04-06T20:09:56.742Z,4.10
2023-04-06T20:13:59.054Z,4.65
2023-04-06T20:18:01.423Z,6.40
2023-04-06T20:22:03.812Z,4.95
2023-04-06T20:26:09.805Z,5.68
2023-04-06T20:30:15.425Z,4.00
2023-04-06T20:34:17.779Z,5.18
2023-04-06T20:38:31.930Z,4.25
2023-04-06T20:42:34.896Z,5.30
2023-04-06T20:46:37.190Z,5.00
2023-04-06T20:50:39.547Z,4.75
2023-04-06T20:54:41.747Z,4.70
2023-04-06T20:58:43.859Z,4.18
2023-04-06T21:02:46.605Z,4.68
2023-04-06T21:06:49.810Z,4.85
2023-04-06T21:10:51.900Z,5.95
2023-04-06T21:14:54.163Z,3.83
2023-04-06T21:18:56.280Z,3.95
2023-04-06T21:22:58.513Z,4.38
2023-04-06T21:27:00.697Z,4.15
2023-04-06T21:31:08.107Z,3.90
2023-04-06T21:35:10.958Z,3.97
2023-04-06T21:39:13.244Z,3.20
2023-04-06T21:43:15.669Z,3.58
2023-04-06T21:47:17.872Z,3.53
2023-04-06T21:51:21.585Z,4.93
2023-04-06T21:55:23.782Z,6.87
2023-04-06T21:59:25.917Z,7.43
2023-04-06T22:03:28.508Z,6.88
2023-04-06T22:07:30.966Z,5.97
2023-04-06T22:11:33.099Z,6.65
2023-04-06T22:15:35.814Z,5.35
2023-04-06T22:19:37.964Z,4.40
2023-04-06T22:23:42.641Z,5.38
2023-04-06T22:27:44.891Z,4.85
2023-04-06T22:31:47.432Z,7.03
2023-04-06T22:35:49.903Z,7.28
2023-04-06T22:39:52.161Z,8.27
2023-04-06T22:43:54.276Z,5.45
2023-04-06T22:47:56.395Z,5.25
2023-04-06T22:51:58.706Z,5.10
2023-04-06T22:56:00.846Z,4.75
2023-04-06T23:00:06.036Z,6.10
2023-04-06T23:04:14.918Z,5.57
2023-04-06T23:08:19.515Z,5.00
2023-04-06T23:12:21.901Z,4.55
2023-04-06T23:16:24.050Z,4.50
2023-04-06T23:20:26.396Z,4.72
2023-04-06T23:24:28.571Z,5.10
2023-04-06T23:28:31.480Z,5.38
2023-04-06T23:32:33.711Z,4.90
2023-04-06T23:36:36.064Z,5.00
2023-04-06T23:40:38.863Z,4.93
2023-04-06T23:44:40.992Z,4.43
2023-04-06T23:48:43.532Z,4.63
2023-04-06T23:52:45.949Z,4.35
2023-04-06T23:56:48.031Z,4.47
